createdAt,value
2023-04-09T00:00:15.541Z,11.04
2023-04-09T00:05:15.623Z,11.03
2023-04-09T00:10:14.391Z,10.98
2023-04-09T00:15:27.850Z,10.96
2023-04-09T00:20:29.256Z,10.92
2023-04-09T00:25:28.850Z,10.90
2023-04-09T00:30:29.735Z,10.90
2023-04-09T00:35:28.502Z,10.94
2023-04-09T00:40:27.325Z,11.01
2023-04-09T00:45:26.212Z,10.96
2023-04-09T00:50:26.638Z,10.97
2023-04-09T00:55:26.383Z,11.01
2023-04-09T01:00:25.242Z,11.03
2023-04-09T01:05:25.548Z,11.12
2023-04-09T01:10:37.030Z,11.12
2023-04-09T01:15:41.447Z,11.14
2023-04-09T01:20:44.978Z,11.09
2023-04-09T01:26:00.036Z,11.05
2023-04-09T01:31:05.518Z,11.00
2023-04-09T01:36:07.407Z,10.85
2023-04-09T01:41:08.882Z,10.90
2023-04-09T01:46:10.792Z,10.94
2023-04-09T01:51:09.730Z,10.95
2023-04-09T01:56:08.797Z,10.93
2023-04-09T02:01:24.418Z,10.97
2023-04-09T02:06:32.170Z,10.93
2023-04-09T02:11:33.206Z,10.91
2023-04-09T02:16:34.167Z,10.92
2023-04-09T02:21:33.333Z,10.93
2023-04-09T02:26:32.368Z,10.93
2023-04-09T02:31:31.177Z,10.84
2023-04-09T02:36:31.411Z,10.82
2023-04-09T02:41:30.163Z,10.82
2023-04-09T02:46:29.138Z,10.75
2023-04-09T02:51:28.134Z,10.71
2023-04-09T02:56:28.292Z,10.68
2023-04-09T03:01:27.107Z,10.62
2023-04-09T03:06:26.722Z,10.56
2023-04-09T03:11:25.497Z,10.53
2023-04-09T03:16:27.325Z,10.45
2023-04-09T03:21:27.134Z,10.37
2023-04-09T03:26:25.875Z,10.26
2023-04-09T03:31:24.723Z,10.21
2023-04-09T03:36:25.035Z,10.17
2023-04-09T03:41:30.779Z,10.12
2023-04-09T03:46:32.596Z,10.01
2023-04-09T03:51:34.544Z,9.91
2023-04-09T03:56:37.188Z,9.86
2023-04-09T04:01:39.963Z,9.84
2023-04-09T04:06:40.369Z,9.86
2023-04-09T04:11:54.039Z,9.80
2023-04-09T04:16:54.649Z,9.78
2023-04-09T04:21:59.146Z,9.79
2023-04-09T04:26:58.295Z,9.81
2023-04-09T04:32:03.653Z,9.84
2023-04-09T04:37:09.296Z,9.85
2023-04-09T04:42:08.850Z,9.89
2023-04-09T04:47:07.953Z,9.90
2023-04-09T04:52:08.712Z,9.93
2023-04-09T04:57:10.141Z,9.97
2023-04-09T05:02:12.225Z,9.97
2023-04-09T05:07:23.819Z,10.04
2023-04-09T05:12:26.836Z,10.04
2023-04-09T05:17:26.194Z,10.12
2023-04-09T05:22:27.285Z,10.18
2023-04-09T05:27:27.730Z,10.27
2023-04-09T05:32:32.109Z,10.25
2023-04-09T05:37:33.553Z,10.24
2023-04-09T05:42:32.614Z,10.28
2023-04-09T05:47:38.417Z,10.24
2023-04-09T05:52:47.253Z,10.35
2023-04-09T05:57:47.616Z,10.47
2023-04-09T06:02:46.902Z,10.51
2023-04-09T06:07:47.316Z,10.63
2023-04-09T06:12:46.441Z,10.67
2023-04-09T06:17:45.521Z,10.79
2023-04-09T06:22:44.632Z,10.90
2023-04-09T06:27:44.853Z,10.98
2023-04-09T06:32:53.796Z,11.12
2023-04-09T06:37:53.974Z,11.23
2023-04-09T06:42:54.268Z,11.21
2023-04-09T06:47:59.971Z,11.30
2023-04-09T06:52:58.873Z,11.34
2023-04-09T06:57:59.080Z,11.43
2023-04-09T07:02:58.115Z,11.73
2023-04-09T07:07:57.143Z,11.81
2023-04-09T07:12:56.138Z,11.93
2023-04-09T07:17:57.973Z,12.08
2023-04-09T07:22:57.030Z,12.24
2023-04-09T07:27:57.638Z,12.19
2023-04-09T07:32:58.007Z,12.31
2023-04-09T07:37:57.381Z,12.57
2023-04-09T07:42:56.149Z,12.62
2023-04-09T07:47:55.022Z,12.81
2023-04-09T07:52:58.225Z,12.99
2023-04-09T07:58:07.200Z,13.30
2023-04-09T08:03:06.577Z,13.44
2023-04-09T08:08:07.355Z,13.56
2023-04-09T08:13:06.207Z,13.80
2023-04-09T08:18:05.832Z,13.93
2023-04-09T08:23:06.069Z,14.25
2023-04-09T08:28:05.649Z,14.64
2023-04-09T08:33:04.631Z,14.91
2023-04-09T08:38:03.357Z,15.07
2023-04-09T08:43:06.807Z,15.54
2023-04-09T08:48:07.065Z,16.09
2023-04-09T08:53:07.386Z,16.81
2023-04-09T08:58:09.772Z,17.55
2023-04-09T09:03:10.894Z,17.92
2023-04-09T09:08:10.824Z,18.69
2023-04-09T09:13:20.235Z,19.58
2023-04-09T09:18:19.981Z,20.53
2023-04-09T09:23:35.605Z,21.38
2023-04-09T09:28:37.661Z,22.40
2023-04-09T09:33:36.836Z,23.78
2023-04-09T09:38:35.598Z,24.15
2023-04-09T09:43:42.602Z,24.05
2023-04-09T09:48:41.646Z,23.08
2023-04-09T09:53:42.466Z,23.52
2023-04-09T10:03:46.891Z,23.95
2023-04-09T10:08:47.440Z,23.85
2023-04-09T10:13:53.768Z,23.68
2023-04-09T10:18:54.893Z,24.89
2023-04-09T10:23:54.316Z,24.28
2023-04-09T10:29:08.264Z,24.92
2023-04-09T10:34:08.228Z,24.57
2023-04-09T10:39:15.154Z,25.24
2023-04-09T10:44:33.147Z,24.54
2023-04-09T10:49:38.358Z,24.15
2023-04-09T10:54:47.264Z,24.59
2023-04-09T10:59:49.053Z,24.10
2023-04-09T11:05:00.736Z,24.81
2023-04-09T11:09:59.350Z,25.40
2023-04-09T11:15:00.599Z,24.89
2023-04-09T11:19:59.270Z,25.28
2023-04-09T11:24:58.007Z,25.12
2023-04-09T11:29:56.798Z,24.95
2023-04-09T11:34:57.290Z,25.15
2023-04-09T11:39:57.975Z,25.11
2023-04-09T11:44:57.266Z,25.85
2023-04-09T11:49:57.481Z,26.03
2023-04-09T11:54:56.215Z,26.47
2023-04-09T11:59:55.031Z,25.73
2023-04-09T12:04:53.917Z,25.18
2023-04-09T12:09:54.154Z,25.44
2023-04-09T12:14:54.022Z,25.65
2023-04-09T12:19:52.869Z,25.29
2023-04-09T12:24:51.842Z,25.01
2023-04-09T12:29:51.929Z,25.01
2023-04-09T12:34:50.877Z,24.38
2023-04-09T12:39:49.839Z,24.39
2023-04-09T12:44:48.810Z,24.04
2023-04-09T12:49:50.255Z,24.04
2023-04-09T12:54:49.155Z,23.76
2023-04-09T12:59:47.971Z,22.99
2023-04-09T13:04:49.862Z,22.79
2023-04-09T13:09:48.697Z,22.98
2023-04-09T13:14:49.014Z,22.93
2023-04-09T13:19:49.237Z,23.19
2023-04-09T13:24:48.038Z,23.34
2023-04-09T13:29:46.971Z,23.56
2023-04-09T13:34:46.125Z,24.48
2023-04-09T13:39:46.399Z,24.76
2023-04-09T13:44:45.825Z,24.96
2023-04-09T13:49:45.167Z,24.62
2023-04-09T13:54:44.322Z,24.71
2023-04-09T13:59:44.549Z,24.49
2023-04-09T14:04:43.419Z,24.79
2023-04-09T14:09:42.262Z,24.81
2023-04-09T14:14:41.203Z,24.73
2023-04-09T14:19:41.550Z,24.61
2023-04-09T14:24:40.964Z,24.59
2023-04-09T14:29:39.762Z,24.31
2023-04-09T14:34:38.666Z,24.37
2023-04-09T14:39:38.996Z,24.67
2023-04-09T14:44:37.968Z,24.59
2023-04-09T14:49:39.117Z,24.57
2023-04-09T14:54:39.745Z,24.76
2023-04-09T14:59:38.602Z,25.18
2023-04-09T15:04:37.713Z,25.55
2023-04-09T15:09:38.801Z,26.14
2023-04-09T15:14:41.559Z,26.51
2023-04-09T15:19:40.433Z,25.72
2023-04-09T15:24:39.719Z,25.73
2023-04-09T15:29:40.057Z,26.13
2023-04-09T15:34:39.014Z,25.95
2023-04-09T15:39:39.046Z,25.85
2023-04-09T15:44:39.330Z,25.68
2023-04-09T15:49:38.045Z,25.32
2023-04-09T15:54:37.189Z,24.78
2023-04-09T15:59:36.080Z,24.55
2023-04-09T16:04:39.539Z,24.13
2023-04-09T16:09:38.501Z,23.43
2023-04-09T16:14:37.343Z,23.68
2023-04-09T16:19:36.096Z,24.03
2023-04-09T16:24:36.505Z,23.74
2023-04-09T16:29:35.640Z,23.53
2023-04-09T16:34:34.499Z,23.39
2023-04-09T16:39:35.671Z,22.95
2023-04-09T16:44:35.995Z,22.59
2023-04-09T16:49:34.820Z,22.36
2023-04-09T16:54:33.659Z,22.07
2023-04-09T16:59:32.639Z,21.35
2023-04-09T17:04:34.559Z,20.71
2023-04-09T17:09:33.352Z,20.17
2023-04-09T17:14:33.850Z,19.59
2023-04-09T17:19:34.212Z,19.11
2023-04-09T17:24:36.883Z,18.85
2023-04-09T17:29:35.752Z,18.54
2023-04-09T17:34:38.105Z,18.34
2023-04-09T17:39:37.021Z,18.08
2023-04-09T17:44:35.868Z,17.85
2023-04-09T17:49:39.483Z,17.72
2023-04-09T17:54:38.842Z,17.49
2023-04-09T17:59:38.271Z,17.34
2023-04-09T18:04:38.727Z,17.15
2023-04-09T18:09:39.247Z,16.99
2023-04-09T18:14:38.011Z,16.81
2023-04-09T18:19:38.184Z,16.64
2023-04-09T18:24:37.222Z,16.43
2023-04-09T18:29:36.422Z,16.19
2023-04-09T18:34:35.391Z,16.11
2023-04-09T18:39:37.672Z,15.98
2023-04-09T18:44:37.762Z,15.85
2023-04-09T18:49:36.931Z,15.62
2023-04-09T18:54:37.506Z,15.55
2023-04-09T18:59:36.276Z,15.50
2023-04-09T19:04:39.545Z,15.30
2023-04-09T19:09:41.801Z,15.29
2023-04-09T19:14:40.695Z,15.26
2023-04-09T19:19:39.467Z,15.26
2023-04-09T19:24:39.817Z,15.22
2023-04-09T19:29:38.783Z,15.22
2023-04-09T19:34:37.444Z,15.17
2023-04-09T19:39:36.089Z,15.11
2023-04-09T19:44:36.231Z,14.98
2023-04-09T19:49:35.020Z,14.49
2023-04-09T19:54:34.660Z,14.23
2023-04-09T19:59:36.403Z,14.27
2023-04-09T20:04:36.560Z,14.25
2023-04-09T20:09:36.971Z,14.22
2023-04-09T20:14:35.695Z,14.21
2023-04-09T20:19:34.464Z,14.03
2023-04-09T20:24:35.465Z,14.10
2023-04-09T20:29:34.189Z,13.77
2023-04-09T20:34:33.139Z,13.98
2023-04-09T20:39:31.885Z,14.04
2023-04-09T20:44:32.087Z,14.07
2023-04-09T20:49:31.845Z,14.18
2023-04-09T20:54:30.992Z,14.19
2023-04-09T20:59:31.202Z,14.25
2023-04-09T21:04:30.381Z,14.28
2023-04-09T21:09:29.401Z,14.30
2023-04-09T21:14:28.146Z,14.25
2023-04-09T21:19:28.263Z,14.28
2023-04-09T21:24:27.935Z,14.27
2023-04-09T21:29:27.525Z,14.26
2023-04-09T21:34:27.667Z,14.20
2023-04-09T21:39:26.338Z,14.12
2023-04-09T21:44:25.187Z,13.96
2023-04-09T21:49:24.076Z,13.95
2023-04-09T21:54:24.135Z,13.97
2023-04-09T21:59:23.060Z,13.96
2023-04-09T22:04:21.963Z,13.82
2023-04-09T22:09:20.797Z,13.73
2023-04-09T22:14:21.257Z,13.75
2023-04-09T22:19:19.954Z,13.76
2023-04-09T22:24:19.480Z,13.60
2023-04-09T22:29:18.197Z,13.42
2023-04-09T22:34:21.320Z,13.36
2023-04-09T22:39:21.584Z,13.36
2023-04-09T22:44:20.492Z,13.32
2023-04-09T22:49:20.647Z,13.39
2023-04-09T22:54:19.828Z,13.43
2023-04-09T22:59:19.943Z,13.35
2023-04-09T23:04:25.279Z,13.09
2023-04-09T23:09:24.070Z,12.95
2023-04-09T23:14:22.807Z,12.95
2023-04-09T23:19:22.945Z,12.97
2023-04-09T23:24:21.615Z,12.96
2023-04-09T23:29:20.564Z,12.99
2023-04-09T23:34:19.323Z,13.06
2023-04-09T23:39:19.394Z,13.12
2023-04-09T23:44:18.176Z,13.02
2023-04-09T23:49:17.010Z,12.99
2023-04-09T23:54:15.766Z,12.83
2023-04-09T23:59:16.034Z,12.89
